sensor_id;sensor_type;location;lat;lon;timestamp;pressure;altitude;pressure_sealevel;temperature;humidity
75747;BME280;64363;52.198;21.020;2022-11-20T00:00:51;100359.63;;;-3.53;74.51
75747;BME280;64363;52.198;21.020;2022-11-20T00:03:18;100363.84;;;-3.57;73.74
75747;BME280;64363;52.198;21.020;2022-11-20T00:05:47;100368.84;;;-3.66;74.83
75747;BME280;64363;52.198;21.020;2022-11-20T00:08:13;100359.22;;;-3.68;74.24
75747;BME280;64363;52.198;21.020;2022-11-20T00:10:39;100352.94;;;-3.77;74.65
75747;BME280;64363;52.198;21.020;2022-11-20T00:13:06;100364.06;;;-3.84;74.52
75747;BME280;64363;52.198;21.020;2022-11-20T00:15:32;100362.28;;;-3.85;75.33
75747;BME280;64363;52.198;21.020;2022-11-20T00:17:58;100358.84;;;-3.84;74.83
75747;BME280;64363;52.198;21.020;2022-11-20T00:20:24;100356.28;;;-3.82;74.84
75747;BME280;64363;52.198;21.020;2022-11-20T00:22:50;100362.41;;;-3.80;74.43
75747;BME280;64363;52.198;21.020;2022-11-20T00:25:16;100351.22;;;-3.76;74.70
75747;BME280;64363;52.198;21.020;2022-11-20T00:27:41;100353.94;;;-3.71;74.48
75747;BME280;64363;52.198;21.020;2022-11-20T00:30:07;100355.72;;;-3.70;74.71
75747;BME280;64363;52.198;21.020;2022-11-20T00:32:33;100357.63;;;-3.63;74.17
75747;BME280;64363;52.198;21.020;2022-11-20T00:34:59;100356.00;;;-3.58;73.43
75747;BME280;64363;52.198;21.020;2022-11-20T00:37:25;100350.16;;;-3.50;73.03
75747;BME280;64363;52.198;21.020;2022-11-20T00:39:51;100353.94;;;-3.37;73.06
75747;BME280;64363;52.198;21.020;2022-11-20T00:42:17;100345.25;;;-3.36;72.36
75747;BME280;64363;52.198;21.020;2022-11-20T00:44:42;100348.00;;;-3.30;72.28
75747;BME280;64363;52.198;21.020;2022-11-20T00:47:08;100338.38;;;-3.33;71.68
75747;BME280;64363;52.198;21.020;2022-11-20T00:49:34;100343.97;;;-3.16;71.38
75747;BME280;64363;52.198;21.020;2022-11-20T00:52:00;100336.16;;;-3.16;71.16
75747;BME280;64363;52.198;21.020;2022-11-20T00:54:25;100337.91;;;-3.15;70.59
75747;BME280;64363;52.198;21.020;2022-11-20T00:56:54;100349.19;;;-3.16;70.99
75747;BME280;64363;52.198;21.020;2022-11-20T00:59:19;100334.47;;;-3.14;70.19
75747;BME280;64363;52.198;21.020;2022-11-20T01:01:45;100332.88;;;-3.07;70.34
75747;BME280;64363;52.198;21.020;2022-11-20T01:04:11;100332.91;;;-3.06;72.14
75747;BME280;64363;52.198;21.020;2022-11-20T01:06:38;100330.22;;;-3.10;71.43
75747;BME280;64363;52.198;21.020;2022-11-20T01:09:09;100319.72;;;-3.12;72.10
75747;BME280;64363;52.198;21.020;2022-11-20T01:11:38;100323.22;;;-3.11;72.20
75747;BME280;64363;52.198;21.020;2022-11-20T01:14:05;100318.50;;;-3.27;70.29
75747;BME280;64363;52.198;21.020;2022-11-20T01:16:41;100322.94;;;-3.25;71.35
75747;BME280;64363;52.198;21.020;2022-11-20T01:19:12;100315.78;;;-3.34;72.29
75747;BME280;64363;52.198;21.020;2022-11-20T01:21:40;100318.41;;;-3.32;72.39
75747;BME280;64363;52.198;21.020;2022-11-20T01:24:14;100312.34;;;-3.31;72.47
75747;BME280;64363;52.198;21.020;2022-11-20T01:26:41;100311.63;;;-3.25;72.70
75747;BME280;64363;52.198;21.020;2022-11-20T01:29:13;100308.13;;;-3.26;72.15
75747;BME280;64363;52.198;21.020;2022-11-20T01:31:39;100301.03;;;-3.33;71.48
75747;BME280;64363;52.198;21.020;2022-11-20T01:34:06;100303.63;;;-3.33;72.16
75747;BME280;64363;52.198;21.020;2022-11-20T01:36:34;100302.91;;;-3.26;70.99
75747;BME280;64363;52.198;21.020;2022-11-20T01:39:04;100303.88;;;-3.22;71.57
75747;BME280;64363;52.198;21.020;2022-11-20T01:41:31;100304.63;;;-3.26;71.91
75747;BME280;64363;52.198;21.020;2022-11-20T01:44:19;100307.41;;;-3.19;71.91
75747;BME280;64363;52.198;21.020;2022-11-20T01:47:04;100303.19;;;-3.14;70.59
75747;BME280;64363;52.198;21.020;2022-11-20T01:49:47;100303.25;;;-3.11;70.57
75747;BME280;64363;52.198;21.020;2022-11-20T01:52:29;100301.38;;;-3.18;71.11
75747;BME280;64363;52.198;21.020;2022-11-20T01:55:02;100299.53;;;-3.22;71.41
75747;BME280;64363;52.198;21.020;2022-11-20T01:57:30;100295.28;;;-3.17;71.24
75747;BME280;64363;52.198;21.020;2022-11-20T02:00:00;100301.41;;;-3.15;70.94
75747;BME280;64363;52.198;21.020;2022-11-20T02:02:27;100304.03;;;-3.15;71.12
75747;BME280;64363;52.198;21.020;2022-11-20T02:04:56;100294.66;;;-3.07;72.04
75747;BME280;64363;52.198;21.020;2022-11-20T02:07:26;100299.66;;;-3.16;72.65
75747;BME280;64363;52.198;21.020;2022-11-20T02:09:51;100297.56;;;-3.32;73.08
75747;BME280;64363;52.198;21.020;2022-11-20T02:12:17;100304.53;;;-3.31;73.03
75747;BME280;64363;52.198;21.020;2022-11-20T02:15:02;100290.72;;;-3.27;72.74
75747;BME280;64363;52.198;21.020;2022-11-20T02:17:29;100301.22;;;-3.24;72.95
75747;BME280;64363;52.198;21.020;2022-11-20T02:19:54;100308.19;;;-3.23;74.38
75747;BME280;64363;52.198;21.020;2022-11-20T02:22:30;100315.13;;;-3.25;73.96
75747;BME280;64363;52.198;21.020;2022-11-20T02:24:59;100302.09;;;-3.23;73.64
75747;BME280;64363;52.198;21.020;2022-11-20T02:27:27;100305.59;;;-3.23;73.12
75747;BME280;64363;52.198;21.020;2022-11-20T02:29:59;100301.28;;;-3.21;74.30
75747;BME280;64363;52.198;21.020;2022-11-20T02:32:32;100297.88;;;-3.18;72.51
75747;BME280;64363;52.198;21.020;2022-11-20T02:34:57;100303.88;;;-3.22;73.34
75747;BME280;64363;52.198;21.020;2022-11-20T02:37:29;100296.94;;;-3.20;74.71
75747;BME280;64363;52.198;21.020;2022-11-20T02:39:55;100304.88;;;-3.16;74.07
75747;BME280;64363;52.198;21.020;2022-11-20T02:42:21;100310.84;;;-3.20;73.01
75747;BME280;64363;52.198;21.020;2022-11-20T02:44:47;100306.41;;;-3.24;73.76
75747;BME280;64363;52.198;21.020;2022-11-20T02:47:13;100316.91;;;-3.21;74.19
75747;BME280;64363;52.198;21.020;2022-11-20T02:49:38;100311.00;;;-3.14;73.93
75747;BME280;64363;52.198;21.020;2022-11-20T02:52:04;100307.69;;;-3.07;73.08
75747;BME280;64363;52.198;21.020;2022-11-20T02:54:30;100313.88;;;-3.02;73.51
75747;BME280;64363;52.198;21.020;2022-11-20T02:56:56;100310.28;;;-3.07;74.18
75747;BME280;64363;52.198;21.020;2022-11-20T02:59:21;100311.13;;;-3.09;73.22
75747;BME280;64363;52.198;21.020;2022-11-20T03:01:47;100305.81;;;-3.12;75.14
75747;BME280;64363;52.198;21.020;2022-11-20T03:04:13;100302.41;;;-3.10;74.35
75747;BME280;64363;52.198;21.020;2022-11-20T03:06:39;100303.19;;;-3.14;74.78
75747;BME280;64363;52.198;21.020;2022-11-20T03:09:04;100302.31;;;-3.14;74.47
75747;BME280;64363;52.198;21.020;2022-11-20T03:11:30;100306.41;;;-3.25;74.91
75747;BME280;64363;52.198;21.020;2022-11-20T03:13:56;100297.56;;;-3.32;75.59
75747;BME280;64363;52.198;21.020;2022-11-20T03:16:22;100301.03;;;-3.33;75.70
75747;BME280;64363;52.198;21.020;2022-11-20T03:18:49;100292.28;;;-3.35;75.07
75747;BME280;64363;52.198;21.020;2022-11-20T03:21:17;100284.47;;;-3.35;75.38
75747;BME280;64363;52.198;21.020;2022-11-20T03:23:43;100289.56;;;-3.40;75.87
75747;BME280;64363;52.198;21.020;2022-11-20T03:26:20;100279.97;;;-3.42;76.11
75747;BME280;64363;52.198;21.020;2022-11-20T03:28:54;100299.03;;;-3.43;76.59
75747;BME280;64363;52.198;21.020;2022-11-20T03:31:23;100297.16;;;-3.49;76.05
75747;BME280;64363;52.198;21.020;2022-11-20T03:33:49;100291.94;;;-3.50;75.54
75747;BME280;64363;52.198;21.020;2022-11-20T03:36:17;100297.81;;;-3.59;76.31
75747;BME280;64363;52.198;21.020;2022-11-20T03:38:43;100291.50;;;-3.68;76.63
75747;BME280;64363;52.198;21.020;2022-11-20T03:41:11;100287.91;;;-3.73;77.57
75747;BME280;64363;52.198;21.020;2022-11-20T03:43:37;100289.59;;;-3.75;76.46
75747;BME280;64363;52.198;21.020;2022-11-20T03:46:04;100292.91;;;-3.81;77.41
75747;BME280;64363;52.198;21.020;2022-11-20T03:48:30;100286.75;;;-3.85;78.02
75747;BME280;64363;52.198;21.020;2022-11-20T03:51:07;100291.00;;;-3.88;76.93
75747;BME280;64363;52.198;21.020;2022-11-20T03:53:33;100286.63;;;-3.91;77.82
75747;BME280;64363;52.198;21.020;2022-11-20T03:55:59;100287.31;;;-3.98;78.19
75747;BME280;64363;52.198;21.020;2022-11-20T03:58:24;100292.59;;;-3.95;77.85
75747;BME280;64363;52.198;21.020;2022-11-20T04:00:50;100286.38;;;-4.00;78.82
75747;BME280;64363;52.198;21.020;2022-11-20T04:03:15;100284.53;;;-4.05;78.43
75747;BME280;64363;52.198;21.020;2022-11-20T04:05:41;100283.66;;;-4.06;79.13
75747;BME280;64363;52.198;21.020;2022-11-20T04:08:07;100282.69;;;-4.09;78.89
75747;BME280;64363;52.198;21.020;2022-11-20T04:10:33;100280.91;;;-4.10;79.22
75747;BME280;64363;52.198;21.020;2022-11-20T04:12:59;100274.00;;;-4.10;79.27
75747;BME280;64363;52.198;21.020;2022-11-20T04:15:24;100279.97;;;-4.14;78.84
75747;BME280;64363;52.198;21.020;2022-11-20T04:17:50;100279.03;;;-4.16;79.22
75747;BME280;64363;52.198;21.020;2022-11-20T04:20:16;100285.88;;;-4.19;79.33
75747;BME280;64363;52.198;21.020;2022-11-20T04:22:41;100272.81;;;-4.21;79.44
75747;BME280;64363;52.198;21.020;2022-11-20T04:25:07;100276.28;;;-4.22;79.80
75747;BME280;64363;52.198;21.020;2022-11-20T04:27:33;100276.19;;;-4.25;79.21
75747;BME280;64363;52.198;21.020;2022-11-20T04:29:59;100274.41;;;-4.28;79.29
75747;BME280;64363;52.198;21.020;2022-11-20T04:32:24;100262.09;;;-4.33;79.90
75747;BME280;64363;52.198;21.020;2022-11-20T04:34:50;100271.53;;;-4.38;79.76
75747;BME280;64363;52.198;21.020;2022-11-20T04:37:16;100272.34;;;-4.39;80.84
75747;BME280;64363;52.198;21.020;2022-11-20T04:39:41;100274.19;;;-4.35;79.99
75747;BME280;64363;52.198;21.020;2022-11-20T04:42:08;100274.16;;;-4.37;80.52
75747;BME280;64363;52.198;21.020;2022-11-20T04:44:54;100265.44;;;-4.39;80.12
75747;BME280;64363;52.198;21.020;2022-11-20T04:47:20;100261.13;;;-4.37;80.10
75747;BME280;64363;52.198;21.020;2022-11-20T04:49:45;100258.59;;;-4.35;79.68
75747;BME280;64363;52.198;21.020;2022-11-20T04:52:11;100258.28;;;-4.47;79.30
75747;BME280;64363;52.198;21.020;2022-11-20T04:54:37;100260.06;;;-4.45;80.24
75747;BME280;64363;52.198;21.020;2022-11-20T04:57:02;100257.44;;;-4.46;80.03
75747;BME280;64363;52.198;21.020;2022-11-20T04:59:28;100263.47;;;-4.47;80.21
75747;BME280;64363;52.198;21.020;2022-11-20T05:01:54;100255.66;;;-4.47;79.99
75747;BME280;64363;52.198;21.020;2022-11-20T05:04:19;100254.72;;;-4.49;79.94
75747;BME280;64363;52.198;21.020;2022-11-20T05:06:45;100257.38;;;-4.48;79.57
75747;BME280;64363;52.198;21.020;2022-11-20T05:09:14;100253.91;;;-4.48;80.40
75747;BME280;64363;52.198;21.020;2022-11-20T05:11:40;100259.09;;;-4.50;79.76
75747;BME280;64363;52.198;21.020;2022-11-20T05:14:06;100249.53;;;-4.49;79.50
75747;BME280;64363;52.198;21.020;2022-11-20T05:16:33;100253.78;;;-4.53;79.73
75747;BME280;64363;52.198;21.020;2022-11-20T05:18:59;100250.34;;;-4.52;79.51
75747;BME280;64363;52.198;21.020;2022-11-20T05:21:25;100254.59;;;-4.55;80.02
75747;BME280;64363;52.198;21.020;2022-11-20T05:23:51;100252.75;;;-4.59;80.16
75747;BME280;64363;52.198;21.020;2022-11-20T05:26:19;100258.97;;;-4.53;79.61
75747;BME280;64363;52.198;21.020;2022-11-20T05:28:45;100260.66;;;-4.55;79.81
75747;BME280;64363;52.198;21.020;2022-11-20T05:31:17;100251.09;;;-4.57;79.94
75747;BME280;64363;52.198;21.020;2022-11-20T05:33:44;100246.78;;;-4.55;79.72
75747;BME280;64363;52.198;21.020;2022-11-20T05:36:12;100248.56;;;-4.53;78.81
75747;BME280;64363;52.198;21.020;2022-11-20T05:38:38;100233.69;;;-4.58;79.46
75747;BME280;64363;52.198;21.020;2022-11-20T05:41:15;100241.56;;;-4.55;80.00
75747;BME280;64363;52.198;21.020;2022-11-20T05:43:43;100240.63;;;-4.59;79.71
75747;BME280;64363;52.198;21.020;2022-11-20T05:46:11;100246.59;;;-4.63;80.35
75747;BME280;64363;52.198;21.020;2022-11-20T05:48:39;100249.31;;;-4.58;80.50
75747;BME280;64363;52.198;21.020;2022-11-20T05:51:07;100247.47;;;-4.62;79.52
75747;BME280;64363;52.198;21.020;2022-11-20T05:53:34;100249.81;;;-4.72;79.88
75747;BME280;64363;52.198;21.020;2022-11-20T05:56:02;100236.88;;;-4.70;80.14
75747;BME280;64363;52.198;21.020;2022-11-20T05:58:28;100240.50;;;-4.63;79.99
75747;BME280;64363;52.198;21.020;2022-11-20T06:00:54;100233.53;;;-4.64;80.45
75747;BME280;64363;52.198;21.020;2022-11-20T06:03:20;100240.63;;;-4.59;79.81
75747;BME280;64363;52.198;21.020;2022-11-20T06:05:46;100239.66;;;-4.62;78.88
75747;BME280;64363;52.198;21.020;2022-11-20T06:08:12;100225.72;;;-4.64;79.74
75747;BME280;64363;52.198;21.020;2022-11-20T06:10:37;100219.69;;;-4.63;79.32
75747;BME280;64363;52.198;21.020;2022-11-20T06:13:03;100232.13;;;-4.53;79.16
75747;BME280;64363;52.198;21.020;2022-11-20T06:15:28;100226.09;;;-4.51;79.80
75747;BME280;64363;52.198;21.020;2022-11-20T06:17:55;100225.22;;;-4.51;79.71
75747;BME280;64363;52.198;21.020;2022-11-20T06:20:21;100227.81;;;-4.51;79.67
75747;BME280;64363;52.198;21.020;2022-11-20T06:22:47;100230.41;;;-4.51;79.39
75747;BME280;64363;52.198;21.020;2022-11-20T06:25:13;100226.91;;;-4.53;79.34
75747;BME280;64363;52.198;21.020;2022-11-20T06:27:39;100228.44;;;-4.60;78.51
75747;BME280;64363;52.198;21.020;2022-11-20T06:30:05;100226.03;;;-4.54;79.11
75747;BME280;64363;52.198;21.020;2022-11-20T06:32:32;100228.66;;;-4.52;79.48
75747;BME280;64363;52.198;21.020;2022-11-20T06:34:57;100220.91;;;-4.49;78.97
75747;BME280;64363;52.198;21.020;2022-11-20T06:37:23;100221.91;;;-4.44;78.87
75747;BME280;64363;52.198;21.020;2022-11-20T06:39:49;100226.16;;;-4.48;78.49
75747;BME280;64363;52.198;21.020;2022-11-20T06:42:15;100233.25;;;-4.42;78.65
75747;BME280;64363;52.198;21.020;2022-11-20T06:44:40;100234.16;;;-4.40;78.46
75747;BME280;64363;52.198;21.020;2022-11-20T06:47:06;100222.97;;;-4.38;78.23
75747;BME280;64363;52.198;21.020;2022-11-20T06:49:31;100225.66;;;-4.33;78.87
75747;BME280;64363;52.198;21.020;2022-11-20T06:51:59;100230.09;;;-4.31;78.77
75747;BME280;64363;52.198;21.020;2022-11-20T06:54:25;100235.28;;;-4.31;79.29
75747;BME280;64363;52.198;21.020;2022-11-20T06:56:51;100229.19;;;-4.31;78.23
75747;BME280;64363;52.198;21.020;2022-11-20T06:59:16;100238.59;;;-4.36;77.82
75747;BME280;64363;52.198;21.020;2022-11-20T07:01:42;100234.34;;;-4.34;78.21
75747;BME280;64363;52.198;21.020;2022-11-20T07:04:07;100227.38;;;-4.35;77.61
75747;BME280;64363;52.198;21.020;2022-11-20T07:06:33;100224.06;;;-4.28;77.27
75747;BME280;64363;52.198;21.020;2022-11-20T07:08:59;100211.03;;;-4.30;78.01
75747;BME280;64363;52.198;21.020;2022-11-20T07:11:25;100213.84;;;-4.20;78.00
75747;BME280;64363;52.198;21.020;2022-11-20T07:13:50;100207.88;;;-4.16;78.66
75747;BME280;64363;52.198;21.020;2022-11-20T07:16:16;100204.84;;;-3.99;80.67
75747;BME280;64363;52.198;21.020;2022-11-20T07:18:42;100203.69;;;-3.72;78.29
75747;BME280;64363;52.198;21.020;2022-11-20T07:21:10;100212.72;;;-3.58;77.11
75747;BME280;64363;52.198;21.020;2022-11-20T07:23:36;100206.63;;;-3.59;77.43
75747;BME280;64363;52.198;21.020;2022-11-20T07:26:06;100194.50;;;-3.57;76.26
75747;BME280;64363;52.198;21.020;2022-11-20T07:28:33;100198.94;;;-3.53;76.79
75747;BME280;64363;52.198;21.020;2022-11-20T07:30:59;100198.91;;;-3.54;76.02
75747;BME280;64363;52.198;21.020;2022-11-20T07:33:25;100196.81;;;-3.70;76.39
75747;BME280;64363;52.198;21.020;2022-11-20T07:35:51;100206.50;;;-3.63;76.21
75747;BME280;64363;52.198;21.020;2022-11-20T07:38:16;100205.63;;;-3.65;75.56
75747;BME280;64363;52.198;21.020;2022-11-20T07:40:42;100209.16;;;-3.62;75.54
75747;BME280;64363;52.198;21.020;2022-11-20T07:43:08;100208.34;;;-3.59;76.09
75747;BME280;64363;52.198;21.020;2022-11-20T07:45:33;100203.97;;;-3.60;76.17
75747;BME280;64363;52.198;21.020;2022-11-20T07:47:59;100199.75;;;-3.55;75.98
75747;BME280;64363;52.198;21.020;2022-11-20T07:50:25;100204.13;;;-3.53;75.91
75747;BME280;64363;52.198;21.020;2022-11-20T07:52:50;100192.09;;;-3.48;76.92
75747;BME280;64363;52.198;21.020;2022-11-20T07:55:17;100196.63;;;-3.39;76.64
75747;BME280;64363;52.198;21.020;2022-11-20T07:57:42;100195.97;;;-3.29;75.66
75747;BME280;64363;52.198;21.020;2022-11-20T08:00:10;100195.19;;;-3.25;75.40
75747;BME280;64363;52.198;21.020;2022-11-20T08:02:37;100196.13;;;-3.21;75.27
75747;BME280;64363;52.198;21.020;2022-11-20T08:05:04;100188.91;;;-3.35;74.65
75747;BME280;64363;52.198;21.020;2022-11-20T08:07:44;100185.00;;;-3.55;75.53
75747;BME280;64363;52.198;21.020;2022-11-20T08:10:12;100184.31;;;-3.46;75.99
75747;BME280;64363;52.198;21.020;2022-11-20T08:12:51;100192.34;;;-3.36;75.95
75747;BME280;64363;52.198;21.020;2022-11-20T08:15:37;100183.78;;;-3.30;75.23
75747;BME280;64363;52.198;21.020;2022-11-20T08:18:08;100186.66;;;-3.18;75.51
75747;BME280;64363;52.198;21.020;2022-11-20T08:20:35;100185.78;;;-3.17;74.40
75747;BME280;64363;52.198;21.020;2022-11-20T08:23:02;100178.16;;;-3.08;75.04
75747;BME280;64363;52.198;21.020;2022-11-20T08:25:32;100185.38;;;-2.95;74.68
75747;BME280;64363;52.198;21.020;2022-11-20T08:27:58;100191.59;;;-2.87;74.41
75747;BME280;64363;52.198;21.020;2022-11-20T08:30:25;100178.03;;;-2.69;74.15
75747;BME280;64363;52.198;21.020;2022-11-20T08:32:51;100180.59;;;-2.70;73.51
75747;BME280;64363;52.198;21.020;2022-11-20T08:35:17;100174.53;;;-2.69;73.71
75747;BME280;64363;52.198;21.020;2022-11-20T08:37:46;100168.88;;;-2.46;73.09
75747;BME280;64363;52.198;21.020;2022-11-20T08:40:12;100176.06;;;-2.31;72.27
75747;BME280;64363;52.198;21.020;2022-11-20T08:42:46;100176.31;;;-2.17;73.33
75747;BME280;64363;52.198;21.020;2022-11-20T08:45:12;100172.03;;;-2.11;72.09
75747;BME280;64363;52.198;21.020;2022-11-20T08:47:37;100169.47;;;-2.08;71.97
75747;BME280;64363;52.198;21.020;2022-11-20T08:50:03;100175.78;;;-1.95;72.13
75747;BME280;64363;52.198;21.020;2022-11-20T08:52:29;100168.00;;;-1.91;72.22
75747;BME280;64363;52.198;21.020;2022-11-20T08:54:54;100163.75;;;-1.85;70.83
75747;BME280;64363;52.198;21.020;2022-11-20T08:57:20;100148.81;;;-1.93;71.79
75747;BME280;64363;52.198;21.020;2022-11-20T08:59:46;100154.13;;;-1.86;71.84
75747;BME280;64363;52.198;21.020;2022-11-20T09:02:11;100142.66;;;-1.96;71.70
75747;BME280;64363;52.198;21.020;2022-11-20T09:04:37;100143.44;;;-2.05;71.54
75747;BME280;64363;52.198;21.020;2022-11-20T12:10:36;100020.88;;;2.31;61.43
75747;BME280;64363;52.198;21.020;2022-11-20T12:14:33;100020.03;;;2.23;61.36
75747;BME280;64363;52.198;21.020;2022-11-20T14:40:34;99914.31;;;0.53;72.78
75747;BME280;64363;52.198;21.020;2022-11-20T14:43:23;99918.69;;;0.49;73.27
75747;BME280;64363;52.198;21.020;2022-11-20T14:46:01;99907.31;;;0.35;73.29
75747;BME280;64363;52.198;21.020;2022-11-20T14:48:36;99907.31;;;0.35;73.48
75747;BME280;64363;52.198;21.020;2022-11-20T14:51:03;99901.19;;;0.30;73.55
75747;BME280;64363;52.198;21.020;2022-11-20T14:53:29;99907.28;;;0.26;73.96
75747;BME280;64363;52.198;21.020;2022-11-20T14:55:59;99896.78;;;0.26;74.37
75747;BME280;64363;52.198;21.020;2022-11-20T14:58:30;99901.19;;;0.30;75.00
75747;BME280;64363;52.198;21.020;2022-11-20T15:01:03;99903.78;;;0.27;73.67
75747;BME280;64363;52.198;21.020;2022-11-20T15:03:38;99896.75;;;0.17;74.54
75747;BME280;64363;52.198;21.020;2022-11-20T15:06:10;99895.91;;;0.15;74.89
75747;BME280;64363;52.198;21.020;2022-11-20T15:08:37;99896.75;;;0.12;75.12
75747;BME280;64363;52.198;21.020;2022-11-20T15:11:03;99895.00;;;0.08;75.42
75747;BME280;64363;52.198;21.020;2022-11-20T15:13:32;99887.16;;;0.07;74.88
75747;BME280;64363;52.198;21.020;2022-11-20T15:16:00;99886.25;;;-0.03;74.71
75747;BME280;64363;52.198;21.020;2022-11-20T15:18:30;99886.25;;;-0.03;75.33
75747;BME280;64363;52.198;21.020;2022-11-20T15:21:01;99892.34;;;-0.09;75.48
75747;BME280;64363;52.198;21.020;2022-11-20T15:23:28;99890.63;;;-0.01;75.47
75747;BME280;64363;52.198;21.020;2022-11-20T15:25:55;99892.34;;;-0.07;75.89
75747;BME280;64363;52.198;21.020;2022-11-20T15:30:48;99899.31;;;-0.08;75.68
75747;BME280;64363;52.198;21.020;2022-11-20T15:33:15;99907.16;;;-0.18;75.56
75747;BME280;64363;52.198;21.020;2022-11-20T15:35:41;99902.75;;;-0.24;75.77
75747;BME280;64363;52.198;21.020;2022-11-20T15:38:07;99902.75;;;-0.24;76.12
75747;BME280;64363;52.198;21.020;2022-11-20T15:40:33;99914.09;;;-0.29;76.32
75747;BME280;64363;52.198;21.020;2022-11-20T15:43:00;99900.97;;;-0.31;76.50
75747;BME280;64363;52.198;21.020;2022-11-20T15:45:33;99900.97;;;-0.37;76.70
75747;BME280;64363;52.198;21.020;2022-11-20T15:48:01;99898.31;;;-0.46;77.20
75747;BME280;64363;52.198;21.020;2022-11-20T15:50:34;99899.09;;;-0.56;76.51
75747;BME280;64363;52.198;21.020;2022-11-20T15:53:01;99892.09;;;-0.63;77.70
75747;BME280;64363;52.198;21.020;2022-11-20T15:55:27;99885.91;;;-0.77;77.79
75747;BME280;64363;52.198;21.020;2022-11-20T15:57:53;99877.13;;;-0.84;78.55
75747;BME280;64363;52.198;21.020;2022-11-20T16:00:18;99886.78;;;-0.81;78.41
75747;BME280;64363;52.198;21.020;2022-11-20T16:02:44;99891.09;;;-0.86;78.22
75747;BME280;64363;52.198;21.020;2022-11-20T16:05:11;99884.09;;;-0.90;78.73
75747;BME280;64363;52.198;21.020;2022-11-20T16:07:37;99887.56;;;-0.93;79.49
75747;BME280;64363;52.198;21.020;2022-11-20T16:10:03;99883.19;;;-0.97;79.68
75747;BME280;64363;52.198;21.020;2022-11-20T16:12:29;99881.41;;;-1.01;79.32
75747;BME280;64363;52.198;21.020;2022-11-20T16:15:13;99876.16;;;-1.03;78.63
75747;BME280;64363;52.198;21.020;2022-11-20T16:17:58;99885.69;;;-1.11;78.99
75747;BME280;64363;52.198;21.020;2022-11-20T16:20:24;99875.22;;;-1.14;80.04
75747;BME280;64363;52.198;21.020;2022-11-20T16:22:49;99876.97;;;-1.14;79.79
75747;BME280;64363;52.198;21.020;2022-11-20T16:25:15;99888.22;;;-1.23;80.01
75747;BME280;64363;52.198;21.020;2022-11-20T16:27:41;99885.59;;;-1.23;80.38
75747;BME280;64363;52.198;21.020;2022-11-20T16:30:07;99887.28;;;-1.28;79.73
75747;BME280;64363;52.198;21.020;2022-11-20T16:32:33;99889.97;;;-1.25;79.80
75747;BME280;64363;52.198;21.020;2022-11-20T16:34:58;99883.00;;;-1.20;80.07
75747;BME280;64363;52.198;21.020;2022-11-20T16:37:24;99883.06;;;-1.17;79.70
75747;BME280;64363;52.198;21.020;2022-11-20T16:39:49;99888.28;;;-1.15;79.71
75747;BME280;64363;52.198;21.020;2022-11-20T16:42:16;99883.09;;;-1.11;79.77
75747;BME280;64363;52.198;21.020;2022-11-20T16:44:45;99887.53;;;-1.01;78.87
75747;BME280;64363;52.198;21.020;2022-11-20T16:47:11;99884.06;;;-0.97;78.69
75747;BME280;64363;52.198;21.020;2022-11-20T16:49:37;99880.63;;;-0.86;79.40
75747;BME280;64363;52.198;21.020;2022-11-20T16:52:03;99882.44;;;-0.76;78.64
75747;BME280;64363;52.198;21.020;2022-11-20T16:54:28;99884.19;;;-0.74;77.92
75747;BME280;64363;52.198;21.020;2022-11-20T16:56:54;99877.22;;;-0.70;77.80
75747;BME280;64363;52.198;21.020;2022-11-20T16:59:20;99872.94;;;-0.56;78.21
75747;BME280;64363;52.198;21.020;2022-11-20T17:01:46;99879.09;;;-0.53;78.57
75747;BME280;64363;52.198;21.020;2022-11-20T17:04:12;99877.34;;;-0.49;77.14
75747;BME280;64363;52.198;21.020;2022-11-20T17:06:41;99875.56;;;-0.52;77.00
75747;BME280;64363;52.198;21.020;2022-11-20T17:09:09;99870.34;;;-0.47;77.35
75747;BME280;64363;52.198;21.020;2022-11-20T17:11:36;99879.97;;;-0.49;76.70
75747;BME280;64363;52.198;21.020;2022-11-20T17:14:02;99881.69;;;-0.48;76.70
75747;BME280;64363;52.198;21.020;2022-11-20T17:16:29;99874.69;;;-0.58;76.97
75747;BME280;64363;52.198;21.020;2022-11-20T17:18:56;99874.69;;;-0.58;76.59
75747;BME280;64363;52.198;21.020;2022-11-20T17:21:23;99879.00;;;-0.63;77.75
75747;BME280;64363;52.198;21.020;2022-11-20T17:23:49;99871.13;;;-0.71;77.69
75747;BME280;64363;52.198;21.020;2022-11-20T17:26:20;99867.53;;;-0.86;77.28
75747;BME280;64363;52.198;21.020;2022-11-20T17:28:54;99871.00;;;-0.93;78.50
75747;BME280;64363;52.198;21.020;2022-11-20T17:31:20;99870.88;;;-1.10;79.12
75747;BME280;64363;52.198;21.020;2022-11-20T17:33:46;99866.47;;;-1.17;79.43
75747;BME280;64363;52.198;21.020;2022-11-20T17:36:15;99866.44;;;-1.25;80.00
75747;BME280;64363;52.198;21.020;2022-11-20T17:38:41;99862.03;;;-1.29;80.13
75747;BME280;64363;52.198;21.020;2022-11-20T17:41:15;99861.09;;;-1.38;80.84
75747;BME280;64363;52.198;21.020;2022-11-20T17:43:41;99854.00;;;-1.50;80.70
75747;BME280;64363;52.198;21.020;2022-11-20T17:46:13;99847.84;;;-1.58;80.58
75747;BME280;64363;52.198;21.020;2022-11-20T17:48:39;99846.94;;;-1.62;81.82
75747;BME280;64363;52.198;21.020;2022-11-20T17:51:14;99842.63;;;-1.55;80.16
75747;BME280;64363;52.198;21.020;2022-11-20T17:53:42;99833.03;;;-1.61;81.40
75747;BME280;64363;52.198;21.020;2022-11-20T17:56:08;99834.75;;;-1.60;80.68
75747;BME280;64363;52.198;21.020;2022-11-20T17:58:53;99829.53;;;-1.61;81.40
75747;BME280;64363;52.198;21.020;2022-11-20T18:01:19;99822.50;;;-1.70;81.53
75747;BME280;64363;52.198;21.020;2022-11-20T18:03:45;99817.25;;;-1.70;81.66
75747;BME280;64363;52.198;21.020;2022-11-20T18:06:13;99814.63;;;-1.71;81.42
75747;BME280;64363;52.198;21.020;2022-11-20T18:08:39;99823.28;;;-1.78;81.94
75747;BME280;64363;52.198;21.020;2022-11-20T18:11:09;99812.84;;;-1.78;81.54
75747;BME280;64363;52.198;21.020;2022-11-20T18:13:35;99810.19;;;-1.83;82.04
75747;BME280;64363;52.198;21.020;2022-11-20T18:16:19;99812.75;;;-1.84;82.54